createdAt,value
2023-05-16T08:37:52.258Z,22.36
2023-05-16T08:38:13.877Z,22.44
2023-05-16T08:38:34.493Z,22.54
2023-05-16T08:38:55.112Z,22.57
2023-05-16T08:39:15.829Z,22.63
2023-05-16T08:39:36.434Z,22.73
2023-05-16T08:39:57.056Z,22.88
2023-05-16T08:40:18.830Z,23.02
2023-05-16T08:40:38.450Z,23.10
2023-05-16T08:40:59.101Z,23.15
2023-05-16T08:41:19.725Z,23.27
2023-05-16T08:41:40.573Z,23.32
2023-05-16T08:42:01.422Z,23.34
2023-05-16T08:42:22.086Z,23.39
2023-05-16T08:42:43.481Z,23.40
2023-05-16T08:43:03.378Z,23.41
2023-05-16T08:43:24.026Z,23.43
2023-05-16T08:43:44.626Z,23.41
2023-05-16T08:44:06.225Z,23.41
2023-05-16T08:44:25.853Z,23.44
2023-05-16T08:44:46.483Z,23.43
2023-05-16T08:45:07.186Z,23.43
2023-05-16T08:45:28.018Z,23.41
2023-05-16T08:45:48.713Z,23.40
2023-05-16T08:46:09.352Z,23.40
2023-05-16T08:46:30.018Z,23.41
2023-05-16T08:46:50.837Z,23.39
2023-05-16T08:47:11.568Z,23.37
2023-05-16T08:47:32.389Z,23.34
2023-05-16T08:47:53.691Z,23.37
2023-05-16T08:48:13.830Z,23.39
2023-05-16T08:48:34.406Z,23.37
2023-05-16T08:48:55.049Z,23.36
2023-05-16T08:49:15.678Z,23.31
2023-05-16T08:49:36.284Z,23.36
2023-05-16T08:49:56.958Z,23.32
2023-05-16T08:50:17.608Z,23.32
2023-05-16T08:50:38.240Z,23.34
2023-05-16T08:50:59.056Z,23.31
2023-05-16T08:51:19.703Z,23.34
2023-05-16T08:51:40.343Z,23.32
2023-05-16T08:52:00.950Z,23.31
2023-05-16T08:52:21.546Z,23.25
2023-05-16T08:52:42.736Z,23.28
2023-05-16T08:53:02.831Z,23.25
2023-05-16T08:53:23.768Z,23.24
2023-05-16T08:53:44.083Z,23.28
2023-05-16T08:54:05.684Z,23.27
2023-05-16T08:54:27.362Z,23.24
2023-05-16T08:54:50.400Z,23.24
2023-05-16T08:55:10.937Z,23.27
2023-05-16T08:55:27.382Z,23.27
2023-05-16T08:55:47.660Z,23.24
2023-05-16T08:56:08.273Z,23.24
2023-05-16T08:56:28.870Z,23.23
2023-05-16T08:56:49.479Z,23.28
2023-05-16T08:57:10.105Z,23.24
2023-05-16T08:57:30.690Z,23.28
2023-05-16T08:57:51.277Z,23.25
2023-05-16T08:58:11.883Z,23.28
2023-05-16T08:58:32.531Z,23.24
2023-05-16T08:58:53.139Z,23.24
2023-05-16T08:59:13.840Z,23.25
2023-05-16T08:59:34.526Z,23.28
2023-05-16T08:59:55.807Z,23.25
2023-05-16T09:00:15.982Z,23.27
2023-05-16T09:00:36.615Z,23.28
2023-05-16T09:00:57.277Z,23.27
2023-05-16T09:01:17.994Z,23.32
2023-05-16T09:01:38.665Z,23.34
2023-05-16T09:01:59.284Z,23.40
2023-05-16T09:02:19.975Z,23.41
2023-05-16T09:02:40.792Z,23.44
2023-05-16T09:03:01.484Z,23.47
2023-05-16T09:03:22.173Z,23.54
2023-05-16T09:03:43.005Z,23.56
2023-05-16T09:04:03.710Z,23.59
2023-05-16T09:04:24.446Z,23.58
2023-05-16T09:04:45.078Z,23.61
2023-05-16T09:05:05.681Z,23.59
2023-05-16T09:05:26.467Z,23.61
2023-05-16T09:05:47.283Z,23.59
2023-05-16T09:06:08.458Z,23.63
2023-05-16T09:06:28.633Z,23.59
2023-05-16T09:06:49.225Z,23.65
2023-05-16T09:07:09.832Z,23.63
2023-05-16T09:07:30.452Z,23.63
2023-05-16T09:07:51.055Z,23.65
2023-05-16T09:08:11.659Z,23.68
2023-05-16T09:08:32.312Z,23.68
2023-05-16T09:08:52.924Z,23.66
2023-05-16T09:09:13.673Z,23.65
2023-05-16T09:09:34.324Z,23.65
2023-05-16T09:09:55.520Z,23.66
2023-05-16T09:10:15.676Z,23.66
2023-05-16T09:10:36.298Z,23.68
2023-05-16T09:10:56.986Z,23.71
2023-05-16T09:11:17.763Z,23.69
2023-05-16T09:11:39.049Z,23.73
2023-05-16T09:11:59.177Z,23.65
2023-05-16T09:12:19.835Z,23.71
2023-05-16T09:12:40.626Z,23.66
2023-05-16T09:13:01.244Z,23.71
2023-05-16T09:13:22.623Z,23.66
2023-05-16T09:13:42.704Z,23.68
2023-05-16T09:14:03.327Z,23.73
2023-05-16T09:14:23.937Z,23.71
2023-05-16T09:14:44.521Z,23.74
2023-05-16T09:15:05.108Z,23.74
2023-05-16T09:15:25.849Z,23.74
2023-05-16T09:15:46.520Z,23.76
2023-05-16T09:16:07.161Z,23.78
2023-05-16T09:16:27.781Z,23.76
2023-05-16T09:16:48.440Z,23.80
2023-05-16T09:17:11.633Z,23.76
2023-05-16T09:17:39.081Z,23.74
2023-05-16T09:17:50.660Z,23.78
2023-05-16T09:18:11.298Z,23.83
2023-05-16T09:18:31.986Z,23.80
2023-05-16T09:18:52.729Z,23.76
2023-05-16T09:19:13.476Z,23.76
2023-05-16T09:19:34.142Z,23.69
2023-05-16T09:19:54.718Z,23.63
2023-05-16T09:20:15.555Z,23.66
2023-05-16T09:20:36.148Z,23.62
2023-05-16T09:20:56.804Z,23.56
2023-05-16T09:21:17.453Z,23.56
2023-05-16T09:21:38.063Z,23.58
2023-05-16T09:21:58.687Z,23.55
2023-05-16T09:22:19.292Z,23.59
2023-05-16T09:22:39.916Z,23.56
2023-05-16T09:23:00.538Z,23.59
2023-05-16T09:23:21.151Z,23.58
2023-05-16T09:23:41.780Z,23.58
2023-05-16T09:24:02.372Z,23.56
2023-05-16T09:24:23.008Z,23.59
2023-05-16T09:24:43.617Z,23.56
2023-05-16T09:25:05.718Z,23.62
2023-05-16T09:25:45.703Z,23.61
2023-05-16T09:26:06.370Z,23.61
2023-05-16T09:26:27.032Z,23.61
2023-05-16T09:26:47.663Z,23.59
2023-05-16T09:27:08.274Z,23.59
2023-05-16T09:27:28.917Z,23.61
2023-05-16T09:27:49.544Z,23.58
2023-05-16T09:28:10.131Z,23.61
2023-05-16T09:28:30.851Z,23.61
2023-05-16T09:28:51.524Z,23.61
2023-05-16T09:29:13.249Z,23.58
2023-05-16T09:29:33.472Z,23.59
2023-05-16T09:29:53.579Z,23.61
2023-05-16T09:30:14.257Z,23.61
2023-05-16T09:30:35.177Z,23.63
2023-05-16T09:30:55.441Z,23.62
2023-05-16T09:31:16.040Z,23.63
2023-05-16T09:31:36.780Z,23.65
2023-05-16T09:31:57.454Z,23.69
2023-05-16T09:32:18.067Z,23.66
2023-05-16T09:32:38.659Z,23.66
2023-05-16T09:32:59.637Z,23.69
2023-05-16T09:33:19.946Z,23.68
2023-05-16T09:33:40.636Z,23.66
2023-05-16T09:34:01.192Z,23.68
2023-05-16T09:34:21.769Z,23.68
2023-05-16T09:34:42.377Z,23.68
2023-05-16T09:35:02.993Z,23.66
2023-05-16T09:35:34.964Z,23.69
2023-05-16T09:35:48.080Z,23.69
2023-05-16T09:36:04.813Z,23.73
2023-05-16T09:36:25.429Z,23.76
2023-05-16T09:36:46.062Z,23.76
2023-05-16T09:37:06.630Z,23.80
2023-05-16T09:37:27.245Z,23.80
2023-05-16T09:37:47.844Z,23.80
2023-05-16T09:38:08.476Z,23.81
2023-05-16T09:38:29.092Z,23.81
2023-05-16T09:38:49.763Z,23.80
2023-05-16T09:39:11.069Z,23.81
2023-05-16T09:39:31.336Z,23.81
2023-05-16T09:39:51.914Z,23.83
2023-05-16T09:40:12.527Z,23.81
2023-05-16T09:40:33.181Z,23.84
2023-05-16T09:40:53.769Z,23.84
2023-05-16T09:41:14.383Z,23.86
2023-05-16T09:41:35.171Z,23.86
2023-05-16T09:41:55.848Z,23.81
2023-05-16T09:42:16.552Z,23.81
2023-05-16T09:42:37.123Z,23.83
2023-05-16T09:42:57.742Z,23.84
2023-05-16T09:43:18.644Z,23.84
2023-05-16T09:43:40.312Z,23.88
2023-05-16T09:43:59.366Z,23.87
2023-05-16T09:44:19.985Z,23.87
2023-05-16T09:44:40.581Z,23.87
2023-05-16T09:45:01.790Z,23.91
2023-05-16T09:45:21.884Z,23.93
2023-05-16T09:45:42.476Z,23.88
2023-05-16T09:46:03.134Z,23.91
2023-05-16T09:46:23.818Z,23.88
2023-05-16T09:46:44.494Z,23.88
2023-05-16T09:47:05.118Z,23.88
2023-05-16T09:47:25.778Z,23.88
2023-05-16T09:47:46.405Z,23.87
2023-05-16T09:48:07.176Z,23.91
2023-05-16T09:48:27.872Z,23.87
2023-05-16T09:48:48.485Z,23.88
2023-05-16T09:49:09.236Z,23.88
2023-05-16T09:49:29.933Z,23.86
2023-05-16T09:49:50.505Z,23.86
2023-05-16T09:50:11.119Z,23.92
2023-05-16T09:50:31.706Z,23.88
2023-05-16T09:50:52.545Z,23.88
2023-05-16T09:51:13.585Z,23.91
2023-05-16T09:51:33.716Z,23.87
2023-05-16T09:51:54.338Z,23.91
2023-05-16T09:52:15.615Z,23.88
2023-05-16T09:52:35.737Z,23.91
2023-05-16T09:52:56.390Z,23.91
2023-05-16T09:53:16.988Z,23.92
2023-05-16T09:53:37.602Z,23.93
2023-05-16T09:53:58.215Z,23.92
2023-05-16T09:54:18.809Z,23.96
2023-05-16T09:54:39.536Z,23.98
2023-05-16T09:55:00.096Z,23.98
2023-05-16T09:55:20.698Z,23.99
2023-05-16T09:55:41.312Z,23.98
2023-05-16T09:56:01.924Z,23.98
2023-05-16T09:56:22.528Z,24.01
2023-05-16T09:56:43.137Z,24.01
2023-05-16T09:57:03.749Z,24.01
2023-05-16T09:57:24.410Z,24.02
2023-05-16T09:57:44.999Z,24.03
2023-05-16T09:58:05.603Z,23.96
2023-05-16T09:58:26.224Z,24.02
2023-05-16T09:58:46.822Z,23.99
2023-05-16T09:59:07.447Z,24.02
2023-05-16T09:59:28.099Z,24.02
2023-05-16T09:59:48.734Z,24.02
2023-05-16T10:00:09.308Z,24.03
2023-05-16T10:00:30.052Z,24.01
2023-05-16T10:00:50.655Z,24.01
2023-05-16T10:01:11.298Z,24.01
2023-05-16T10:01:32.005Z,24.03
2023-05-16T10:01:52.622Z,24.02
2023-05-16T10:02:13.295Z,23.98
2023-05-16T10:02:33.957Z,23.99
2023-05-16T10:02:54.654Z,23.98
2023-05-16T10:03:15.373Z,23.96
2023-05-16T10:03:36.034Z,23.98
2023-05-16T10:03:56.842Z,23.93
2023-05-16T10:04:17.537Z,23.98
2023-05-16T10:04:38.204Z,23.93
2023-05-16T10:04:58.855Z,24.01
2023-05-16T10:05:19.487Z,23.98
2023-05-16T10:05:40.102Z,23.98
2023-05-16T10:06:00.698Z,23.98
2023-05-16T10:06:21.351Z,24.01
2023-05-16T10:06:41.970Z,24.02
2023-05-16T10:07:02.564Z,23.99
2023-05-16T10:07:23.223Z,24.02
2023-05-16T10:07:43.832Z,24.02
2023-05-16T10:08:04.417Z,24.03
2023-05-16T10:08:25.024Z,23.99
2023-05-16T10:08:45.712Z,24.01
2023-05-16T10:09:07.539Z,23.99
2023-05-16T10:09:27.194Z,23.98
2023-05-16T10:09:47.820Z,24.01
2023-05-16T10:10:08.455Z,23.99
2023-05-16T10:10:29.069Z,23.98
2023-05-16T10:10:49.676Z,23.99
2023-05-16T10:11:10.367Z,24.02
2023-05-16T10:11:30.992Z,24.05
2023-05-16T10:11:51.719Z,24.02
2023-05-16T10:12:12.341Z,24.03
2023-05-16T10:12:32.958Z,24.01
2023-05-16T10:12:53.581Z,24.02
2023-05-16T10:13:15.351Z,23.96
2023-05-16T10:13:35.348Z,23.96
2023-05-16T10:13:55.926Z,24.01
2023-05-16T10:14:16.544Z,23.96
2023-05-16T10:14:37.154Z,23.96
2023-05-16T10:14:57.760Z,23.99
2023-05-16T10:15:18.409Z,23.95
